»·PEaware :: AAL1555 KLAX-KLAS

AAL1555 :: KLAX-KLAS

FLIGHT INFORMATION

Flight Status: Arrived
Operator:
American Airlines
More flights by this operator :: More flights under this callsign
Pilot: Phil N. (682)
Aircraft: BOEING 737-800
(B738)
More flights by this aircraft type
Origin: KLAX Los Angeles Intl
United States
Destination: KLAS McCarran Intl
United States
More flights between these airports :: More routes between these airports
Route: +ORCKA3 MISEN KEPEC6
File this flight plan on PilotEdge
Remarks: PBN / A1B1C1D1S1S2 DOF / 181202 REG / N806SB OPR / AAL PER / C RMK / TCAS SIMBRIEF
Altitude:
(Current/Filed)
25,000ft
Speed:
(Current/Filed)
420kts
Departed: 02-Dec-18 01:33 PM
Arrived: 02-Dec-18 02:21 PM
Distance/Time
Traveled:
205nm/0:47
Distance/Time
To Go:
Arrived

Flight Plot

Page will automatically refresh every two minutes.

Flight plan parsing failed; only flown route is shown


Map Options




Map Legend


Flown Route
Filed Route
Departure Airport
Arrival Airport
Navaid (VOR, NDB)
Fix

Horizontal Profiles

Position Reports

Time Latitude Longitude Heading Altitude Ground
Speed
02-Dec-18 12:53 33.940028 -118.406088 294 127ft 0kts
02-Dec-18 12:54 33.940028 -118.406088 294 127ft 0kts
02-Dec-18 12:55 33.940028 -118.406088 294 127ft 0kts
02-Dec-18 12:56 33.940028 -118.406088 294 127ft 0kts
02-Dec-18 12:57 33.940028 -118.406088 294 127ft 0kts
02-Dec-18 12:58 33.940028 -118.406088 294 127ft 0kts
02-Dec-18 12:59 33.940028 -118.406088 294 127ft 0kts
02-Dec-18 13:00 33.940028 -118.406088 294 127ft 0kts
02-Dec-18 13:01 33.940028 -118.406088 294 127ft 0kts
02-Dec-18 13:02 33.940028 -118.406088 294 127ft 0kts
02-Dec-18 13:03 33.940028 -118.406088 294 127ft 0kts
02-Dec-18 13:04 33.940028 -118.406088 294 127ft 0kts
02-Dec-18 13:05 33.940028 -118.406088 294 127ft 0kts
02-Dec-18 13:06 33.940028 -118.406088 294 127ft 0kts
02-Dec-18 13:07 33.940028 -118.406088 294 127ft 0kts
02-Dec-18 13:08 33.940028 -118.406088 294 127ft 0kts
02-Dec-18 13:09 33.940028 -118.406088 294 127ft 0kts
02-Dec-18 13:10 33.940028 -118.406088 294 127ft 0kts
02-Dec-18 13:11 33.940028 -118.406088 294 127ft 0kts
02-Dec-18 13:12 33.940028 -118.406088 294 127ft 0kts
02-Dec-18 13:13 33.940028 -118.406088 294 127ft 0kts
02-Dec-18 13:14 33.940028 -118.406088 294 127ft 0kts
02-Dec-18 13:15 33.940028 -118.406088 294 127ft 0kts
02-Dec-18 13:16 33.940028 -118.406088 294 127ft 0kts
02-Dec-18 13:17 33.940028 -118.406088 294 127ft 0kts
02-Dec-18 13:18 33.940028 -118.406088 294 127ft 0kts
02-Dec-18 13:19 33.939854 -118.405624 294 127ft 5kts
02-Dec-18 13:20 33.939834 -118.405569 294 127ft 0kts
02-Dec-18 13:21 33.939834 -118.405569 294 127ft 0kts
02-Dec-18 13:22 33.939834 -118.405569 294 127ft 0kts
02-Dec-18 13:23 33.939834 -118.405569 294 127ft 0kts
02-Dec-18 13:24 33.939839 -118.405583 292 127ft 0kts
02-Dec-18 13:25 33.939707 -118.405570 121 127ft 0kts
02-Dec-18 13:26 33.939707 -118.405570 121 127ft 0kts
02-Dec-18 13:27 33.939707 -118.405570 121 127ft 0kts
02-Dec-18 13:28 33.939707 -118.405570 121 127ft 0kts
02-Dec-18 13:29 33.939704 -118.405563 121 127ft 0kts
02-Dec-18 13:30 33.938722 -118.405285 175 127ft 13kts
02-Dec-18 13:31 33.939038 -118.397504 83 114ft 32kts
02-Dec-18 13:32 33.940185 -118.386256 82 104ft 34kts
02-Dec-18 13:33 33.940691 -118.380719 112 100ft 0kts
02-Dec-18 13:34 33.940691 -118.380719 112 100ft 0kts
02-Dec-18 13:35 33.940639 -118.380589 119 100ft 6kts
02-Dec-18 13:36 33.937055 -118.404285 261 507ft 156kts
02-Dec-18 13:37 33.935952 -118.470383 313 1987ft 252kts
02-Dec-18 13:38 33.968269 -118.541052 261 4960ft 273kts
02-Dec-18 13:39 33.912972 -118.596605 193 6001ft 285kts
02-Dec-18 13:40 33.833516 -118.612267 192 9042ft 298kts
02-Dec-18 13:41 33.751718 -118.579785 136 11309ft 348kts
02-Dec-18 13:42 33.725089 -118.476312 56 12400ft 331kts
02-Dec-18 13:43 33.792506 -118.411154 18 12863ft 318kts
02-Dec-18 13:44 33.873459 -118.369231 17 14356ft 318kts
02-Dec-18 13:45 33.955762 -118.326813 17 15276ft 331kts
02-Dec-18 13:46 34.035836 -118.271928 40 18216ft 358kts
02-Dec-18 13:47 34.087312 -118.162413 48 20531ft 384kts
02-Dec-18 13:48 34.147474 -118.054174 47 22611ft 402kts
02-Dec-18 13:49 34.211500 -117.940337 46 24595ft 420kts
02-Dec-18 13:50 34.278834 -117.820436 47 25090ft 449kts
02-Dec-18 13:51 34.350937 -117.691407 47 25088ft 476kts
02-Dec-18 13:52 34.430273 -117.558212 46 25083ft 499kts
02-Dec-18 13:53 34.511458 -117.421802 46 25081ft 499kts
02-Dec-18 13:54 34.591997 -117.285978 46 25070ft 500kts
02-Dec-18 13:55 34.672938 -117.148978 46 25070ft 500kts
02-Dec-18 13:56 34.754014 -117.011228 46 25072ft 505kts
02-Dec-18 13:57 34.835740 -116.871789 46 25068ft 506kts
02-Dec-18 13:58 34.917216 -116.732153 46 25073ft 505kts
02-Dec-18 13:59 34.993642 -116.596914 46 24786ft 462kts
02-Dec-18 14:00 35.063904 -116.472026 46 24116ft 451kts
02-Dec-18 14:01 35.141177 -116.348435 34 23880ft 469kts
02-Dec-18 14:02 35.229784 -116.244592 37 22047ft 429kts
02-Dec-18 14:03 35.309002 -116.144579 38 20217ft 399kts
02-Dec-18 14:04 35.385062 -116.048635 39 18416ft 387kts
02-Dec-18 14:05 35.458600 -115.955651 39 16873ft 377kts
02-Dec-18 14:06 35.530485 -115.864524 40 15475ft 369kts
02-Dec-18 14:07 35.600865 -115.775064 41 14075ft 361kts
02-Dec-18 14:08 35.668741 -115.688457 41 13030ft 327kts
02-Dec-18 14:09 35.727134 -115.613769 41 13028ft 298kts
02-Dec-18 14:10 35.798300 -115.574489 0 13030ft 283kts
02-Dec-18 14:11 35.875701 -115.569138 359 13021ft 283kts
02-Dec-18 14:12 35.952821 -115.554028 26 13010ft 291kts
02-Dec-18 14:13 36.000340 -115.471927 63 12902ft 309kts
02-Dec-18 14:14 36.029240 -115.370562 81 10976ft 303kts
02-Dec-18 14:15 36.024154 -115.276359 92 9842ft 276kts
02-Dec-18 14:16 36.017309 -115.183377 92 9028ft 269kts
02-Dec-18 14:17 36.011010 -115.090759 92 8122ft 267kts
02-Dec-18 14:18 36.005732 -115.005711 91 6542ft 239kts
02-Dec-18 14:19 36.014965 -114.932493 18 4701ft 202kts
02-Dec-18 14:20 36.063741 -114.934613 316 4243ft 181kts
02-Dec-18 14:21 36.073663 -114.992185 271 4004ft 181kts
02-Dec-18 14:22 36.073627 -115.052231 272 3235ft 155kts
02-Dec-18 14:23 36.073625 -115.101183 272 2493ft 139kts
02-Dec-18 14:24 36.073689 -115.142629 276 2094ft 39kts
02-Dec-18 14:25 36.074467 -115.145404 297 2104ft 0kts

Navigation Log

Ident Type
Flight plan parsing failed, navigation log unavailable